sensor_id;sensor_type;location;lat;lon;timestamp;P1;durP1;ratioP1;P2;durP2;ratioP2
19057;SDS011;9662;53.612;9.914;2022-11-20T00:00:16;3.55;;;3.35;;
19057;SDS011;9662;53.612;9.914;2022-11-20T00:02:43;3.30;;;3.10;;
19057;SDS011;9662;53.612;9.914;2022-11-20T00:05:10;3.20;;;3.10;;
19057;SDS011;9662;53.612;9.914;2022-11-20T00:07:36;4.25;;;3.67;;
19057;SDS011;9662;53.612;9.914;2022-11-20T00:10:03;3.60;;;3.40;;
19057;SDS011;9662;53.612;9.914;2022-11-20T00:12:31;3.30;;;3.15;;
19057;SDS011;9662;53.612;9.914;2022-11-20T00:14:59;3.40;;;3.20;;
19057;SDS011;9662;53.612;9.914;2022-11-20T00:17:26;3.65;;;3.33;;
19057;SDS011;9662;53.612;9.914;2022-11-20T00:19:53;3.58;;;3.38;;
19057;SDS011;9662;53.612;9.914;2022-11-20T00:22:20;3.25;;;3.15;;
19057;SDS011;9662;53.612;9.914;2022-11-20T00:24:46;3.43;;;3.33;;
19057;SDS011;9662;53.612;9.914;2022-11-20T00:27:13;3.67;;;3.15;;
19057;SDS011;9662;53.612;9.914;2022-11-20T00:29:40;3.75;;;3.45;;
19057;SDS011;9662;53.612;9.914;2022-11-20T00:32:08;3.00;;;2.80;;
19057;SDS011;9662;53.612;9.914;2022-11-20T00:34:35;3.63;;;3.42;;
19057;SDS011;9662;53.612;9.914;2022-11-20T00:37:02;3.25;;;3.10;;
19057;SDS011;9662;53.612;9.914;2022-11-20T00:39:28;3.33;;;3.17;;
19057;SDS011;9662;53.612;9.914;2022-11-20T00:41:55;3.30;;;3.10;;
19057;SDS011;9662;53.612;9.914;2022-11-20T00:44:22;3.22;;;3.13;;
19057;SDS011;9662;53.612;9.914;2022-11-20T00:46:49;3.45;;;3.22;;
19057;SDS011;9662;53.612;9.914;2022-11-20T00:49:17;3.65;;;3.45;;
19057;SDS011;9662;53.612;9.914;2022-11-20T00:51:44;3.92;;;3.70;;
19057;SDS011;9662;53.612;9.914;2022-11-20T00:54:11;3.17;;;3.00;;
19057;SDS011;9662;53.612;9.914;2022-11-20T00:56:38;2.60;;;2.50;;
19057;SDS011;9662;53.612;9.914;2022-11-20T00:59:05;3.10;;;2.90;;
19057;SDS011;9662;53.612;9.914;2022-11-20T01:01:31;3.17;;;3.00;;
19057;SDS011;9662;53.612;9.914;2022-11-20T01:03:59;3.42;;;3.13;;
19057;SDS011;9662;53.612;9.914;2022-11-20T01:06:28;3.40;;;3.30;;
19057;SDS011;9662;53.612;9.914;2022-11-20T01:08:56;3.70;;;3.43;;
19057;SDS011;9662;53.612;9.914;2022-11-20T01:11:25;3.17;;;3.07;;
19057;SDS011;9662;53.612;9.914;2022-11-20T01:13:53;3.40;;;3.30;;
19057;SDS011;9662;53.612;9.914;2022-11-20T01:16:21;4.03;;;3.63;;
19057;SDS011;9662;53.612;9.914;2022-11-20T01:18:51;3.25;;;3.15;;
19057;SDS011;9662;53.612;9.914;2022-11-20T01:21:20;3.75;;;3.60;;
19057;SDS011;9662;53.612;9.914;2022-11-20T01:23:49;3.28;;;3.10;;
19057;SDS011;9662;53.612;9.914;2022-11-20T01:26:18;4.00;;;3.40;;
19057;SDS011;9662;53.612;9.914;2022-11-20T01:28:47;3.58;;;3.35;;
19057;SDS011;9662;53.612;9.914;2022-11-20T01:31:15;4.07;;;3.50;;
19057;SDS011;9662;53.612;9.914;2022-11-20T01:33:44;3.85;;;3.45;;
19057;SDS011;9662;53.612;9.914;2022-11-20T01:36:13;4.38;;;3.50;;
19057;SDS011;9662;53.612;9.914;2022-11-20T01:38:41;4.50;;;3.55;;
19057;SDS011;9662;53.612;9.914;2022-11-20T01:41:10;4.45;;;4.18;;
19057;SDS011;9662;53.612;9.914;2022-11-20T01:43:58;3.40;;;3.30;;
19057;SDS011;9662;53.612;9.914;2022-11-20T01:46:25;3.55;;;3.45;;
19057;SDS011;9662;53.612;9.914;2022-11-20T01:48:53;3.67;;;3.47;;
19057;SDS011;9662;53.612;9.914;2022-11-20T01:51:25;3.20;;;3.10;;
19057;SDS011;9662;53.612;9.914;2022-11-20T01:53:55;3.95;;;3.70;;
19057;SDS011;9662;53.612;9.914;2022-11-20T01:56:26;3.78;;;3.58;;
19057;SDS011;9662;53.612;9.914;2022-11-20T01:58:55;3.42;;;3.33;;
19057;SDS011;9662;53.612;9.914;2022-11-20T02:01:24;3.57;;;3.47;;
19057;SDS011;9662;53.612;9.914;2022-11-20T02:03:51;3.97;;;3.72;;
19057;SDS011;9662;53.612;9.914;2022-11-20T02:06:19;3.53;;;3.42;;
19057;SDS011;9662;53.612;9.914;2022-11-20T02:08:50;3.97;;;3.60;;
19057;SDS011;9662;53.612;9.914;2022-11-20T02:11:17;3.65;;;3.55;;
19057;SDS011;9662;53.612;9.914;2022-11-20T02:13:45;3.80;;;3.60;;
19057;SDS011;9662;53.612;9.914;2022-11-20T02:16:14;4.20;;;3.90;;
19057;SDS011;9662;53.612;9.914;2022-11-20T02:18:44;3.50;;;3.30;;
19057;SDS011;9662;53.612;9.914;2022-11-20T02:21:14;3.92;;;3.63;;
19057;SDS011;9662;53.612;9.914;2022-11-20T02:23:57;3.70;;;3.40;;
19057;SDS011;9662;53.612;9.914;2022-11-20T02:26:31;3.67;;;3.53;;
19057;SDS011;9662;53.612;9.914;2022-11-20T02:29:01;3.85;;;3.75;;
19057;SDS011;9662;53.612;9.914;2022-11-20T02:31:29;3.67;;;3.50;;
19057;SDS011;9662;53.612;9.914;2022-11-20T02:34:02;3.22;;;3.10;;
19057;SDS011;9662;53.612;9.914;2022-11-20T02:36:29;3.90;;;3.60;;
19057;SDS011;9662;53.612;9.914;2022-11-20T02:38:59;3.80;;;3.53;;
19057;SDS011;9662;53.612;9.914;2022-11-20T02:41:30;3.88;;;3.67;;
19057;SDS011;9662;53.612;9.914;2022-11-20T02:43:58;3.70;;;3.40;;
19057;SDS011;9662;53.612;9.914;2022-11-20T02:46:25;3.77;;;3.47;;
19057;SDS011;9662;53.612;9.914;2022-11-20T02:48:51;3.80;;;3.50;;
19057;SDS011;9662;53.612;9.914;2022-11-20T02:51:18;3.50;;;3.30;;
19057;SDS011;9662;53.612;9.914;2022-11-20T02:53:45;3.72;;;3.53;;
19057;SDS011;9662;53.612;9.914;2022-11-20T02:56:13;3.67;;;3.50;;
19057;SDS011;9662;53.612;9.914;2022-11-20T02:58:40;3.60;;;3.50;;
19057;SDS011;9662;53.612;9.914;2022-11-20T03:01:07;3.22;;;3.13;;
19057;SDS011;9662;53.612;9.914;2022-11-20T03:03:34;3.55;;;3.35;;
19057;SDS011;9662;53.612;9.914;2022-11-20T03:06:01;3.95;;;3.78;;
19057;SDS011;9662;53.612;9.914;2022-11-20T03:08:28;3.60;;;3.40;;
19057;SDS011;9662;53.612;9.914;2022-11-20T03:10:55;3.80;;;3.70;;
19057;SDS011;9662;53.612;9.914;2022-11-20T03:13:24;3.42;;;3.22;;
19057;SDS011;9662;53.612;9.914;2022-11-20T03:15:51;3.70;;;3.50;;
19057;SDS011;9662;53.612;9.914;2022-11-20T03:18:18;4.15;;;3.83;;
19057;SDS011;9662;53.612;9.914;2022-11-20T03:20:45;4.00;;;3.70;;
19057;SDS011;9662;53.612;9.914;2022-11-20T03:23:11;3.58;;;3.38;;
19057;SDS011;9662;53.612;9.914;2022-11-20T03:25:38;3.65;;;3.45;;
19057;SDS011;9662;53.612;9.914;2022-11-20T03:28:05;3.80;;;3.60;;
19057;SDS011;9662;53.612;9.914;2022-11-20T03:30:33;4.13;;;3.92;;
19057;SDS011;9662;53.612;9.914;2022-11-20T03:33:01;3.30;;;3.20;;
19057;SDS011;9662;53.612;9.914;2022-11-20T03:35:28;3.60;;;3.40;;
19057;SDS011;9662;53.612;9.914;2022-11-20T03:37:54;4.55;;;4.25;;
19057;SDS011;9662;53.612;9.914;2022-11-20T03:40:21;4.30;;;3.80;;
19057;SDS011;9662;53.612;9.914;2022-11-20T03:42:48;3.17;;;3.08;;
19057;SDS011;9662;53.612;9.914;2022-11-20T03:45:16;3.88;;;3.55;;
19057;SDS011;9662;53.612;9.914;2022-11-20T03:47:45;3.70;;;3.57;;
19057;SDS011;9662;53.612;9.914;2022-11-20T03:50:12;3.88;;;3.67;;
19057;SDS011;9662;53.612;9.914;2022-11-20T03:52:40;4.68;;;4.28;;
19057;SDS011;9662;53.612;9.914;2022-11-20T03:55:07;3.72;;;3.53;;
19057;SDS011;9662;53.612;9.914;2022-11-20T03:57:34;3.53;;;3.33;;
19057;SDS011;9662;53.612;9.914;2022-11-20T04:00:02;3.42;;;3.33;;
19057;SDS011;9662;53.612;9.914;2022-11-20T04:02:29;3.72;;;3.60;;
19057;SDS011;9662;53.612;9.914;2022-11-20T04:04:57;4.10;;;3.67;;
19057;SDS011;9662;53.612;9.914;2022-11-20T04:07:24;3.42;;;3.25;;
19057;SDS011;9662;53.612;9.914;2022-11-20T04:09:51;3.78;;;3.63;;
19057;SDS011;9662;53.612;9.914;2022-11-20T04:12:18;3.90;;;3.60;;
19057;SDS011;9662;53.612;9.914;2022-11-20T04:14:45;3.80;;;3.63;;
19057;SDS011;9662;53.612;9.914;2022-11-20T04:17:11;5.15;;;3.40;;
19057;SDS011;9662;53.612;9.914;2022-11-20T04:19:38;4.20;;;4.00;;
19057;SDS011;9662;53.612;9.914;2022-11-20T04:22:06;5.05;;;3.78;;
19057;SDS011;9662;53.612;9.914;2022-11-20T04:24:33;3.73;;;3.63;;
19057;SDS011;9662;53.612;9.914;2022-11-20T04:27:00;4.40;;;4.00;;
19057;SDS011;9662;53.612;9.914;2022-11-20T04:29:27;4.43;;;3.72;;
19057;SDS011;9662;53.612;9.914;2022-11-20T04:31:53;3.78;;;3.63;;
19057;SDS011;9662;53.612;9.914;2022-11-20T04:34:20;4.07;;;3.85;;
19057;SDS011;9662;53.612;9.914;2022-11-20T04:36:47;4.00;;;3.90;;
19057;SDS011;9662;53.612;9.914;2022-11-20T04:39:15;3.88;;;3.67;;
19057;SDS011;9662;53.612;9.914;2022-11-20T04:41:42;3.63;;;3.30;;
19057;SDS011;9662;53.612;9.914;2022-11-20T04:44:09;3.87;;;3.60;;
19057;SDS011;9662;53.612;9.914;2022-11-20T04:46:36;3.80;;;3.70;;
19057;SDS011;9662;53.612;9.914;2022-11-20T04:49:04;3.65;;;3.45;;
19057;SDS011;9662;53.612;9.914;2022-11-20T04:51:31;3.72;;;3.63;;
19057;SDS011;9662;53.612;9.914;2022-11-20T04:53:58;3.55;;;3.40;;
19057;SDS011;9662;53.612;9.914;2022-11-20T04:56:27;4.05;;;3.92;;
19057;SDS011;9662;53.612;9.914;2022-11-20T04:58:54;3.67;;;3.40;;
19057;SDS011;9662;53.612;9.914;2022-11-20T05:01:21;3.65;;;3.55;;
19057;SDS011;9662;53.612;9.914;2022-11-20T05:03:49;5.55;;;3.47;;
19057;SDS011;9662;53.612;9.914;2022-11-20T05:06:17;3.30;;;3.20;;
19057;SDS011;9662;53.612;9.914;2022-11-20T05:08:45;4.38;;;4.05;;
19057;SDS011;9662;53.612;9.914;2022-11-20T05:11:12;3.85;;;3.75;;
19057;SDS011;9662;53.612;9.914;2022-11-20T05:13:42;3.67;;;3.58;;
19057;SDS011;9662;53.612;9.914;2022-11-20T05:16:10;3.55;;;3.45;;
19057;SDS011;9662;53.612;9.914;2022-11-20T05:18:38;4.35;;;4.07;;
19057;SDS011;9662;53.612;9.914;2022-11-20T05:21:06;4.55;;;4.35;;
19057;SDS011;9662;53.612;9.914;2022-11-20T05:23:34;4.10;;;3.90;;
19057;SDS011;9662;53.612;9.914;2022-11-20T05:26:02;4.20;;;3.90;;
19057;SDS011;9662;53.612;9.914;2022-11-20T05:28:29;3.53;;;3.42;;
19057;SDS011;9662;53.612;9.914;2022-11-20T05:31:04;4.33;;;4.13;;
19057;SDS011;9662;53.612;9.914;2022-11-20T05:33:32;3.88;;;3.67;;
19057;SDS011;9662;53.612;9.914;2022-11-20T05:35:59;3.58;;;3.47;;
19057;SDS011;9662;53.612;9.914;2022-11-20T05:38:26;4.03;;;3.92;;
19057;SDS011;9662;53.612;9.914;2022-11-20T05:40:53;4.00;;;3.80;;
19057;SDS011;9662;53.612;9.914;2022-11-20T05:43:19;3.87;;;3.63;;
19057;SDS011;9662;53.612;9.914;2022-11-20T05:45:51;3.70;;;3.50;;
19057;SDS011;9662;53.612;9.914;2022-11-20T05:48:20;4.97;;;4.20;;
19057;SDS011;9662;53.612;9.914;2022-11-20T05:50:47;4.07;;;3.88;;
19057;SDS011;9662;53.612;9.914;2022-11-20T05:53:14;3.70;;;3.50;;
19057;SDS011;9662;53.612;9.914;2022-11-20T05:55:41;3.85;;;3.63;;
19057;SDS011;9662;53.612;9.914;2022-11-20T05:58:07;4.03;;;3.72;;
19057;SDS011;9662;53.612;9.914;2022-11-20T06:00:34;4.85;;;3.85;;
19057;SDS011;9662;53.612;9.914;2022-11-20T06:03:02;5.93;;;4.10;;
19057;SDS011;9662;53.612;9.914;2022-11-20T06:05:30;4.15;;;3.95;;
19057;SDS011;9662;53.612;9.914;2022-11-20T06:08:00;4.00;;;3.80;;
19057;SDS011;9662;53.612;9.914;2022-11-20T06:10:26;4.60;;;4.30;;
19057;SDS011;9662;53.612;9.914;2022-11-20T06:12:53;4.63;;;4.28;;
19057;SDS011;9662;53.612;9.914;2022-11-20T06:15:23;4.80;;;4.50;;
19057;SDS011;9662;53.612;9.914;2022-11-20T06:17:51;5.22;;;4.82;;
19057;SDS011;9662;53.612;9.914;2022-11-20T06:20:18;5.50;;;5.07;;
19057;SDS011;9662;53.612;9.914;2022-11-20T06:22:47;5.78;;;5.38;;
19057;SDS011;9662;53.612;9.914;2022-11-20T06:25:14;5.57;;;5.27;;
19057;SDS011;9662;53.612;9.914;2022-11-20T06:27:41;5.83;;;5.53;;
19057;SDS011;9662;53.612;9.914;2022-11-20T06:30:08;6.72;;;5.50;;
19057;SDS011;9662;53.612;9.914;2022-11-20T06:32:36;4.63;;;4.53;;
19057;SDS011;9662;53.612;9.914;2022-11-20T06:35:03;5.40;;;5.00;;
19057;SDS011;9662;53.612;9.914;2022-11-20T06:37:30;5.07;;;4.78;;
19057;SDS011;9662;53.612;9.914;2022-11-20T06:39:58;5.55;;;5.05;;
19057;SDS011;9662;53.612;9.914;2022-11-20T06:42:25;4.82;;;4.63;;
19057;SDS011;9662;53.612;9.914;2022-11-20T06:44:52;4.93;;;4.63;;
19057;SDS011;9662;53.612;9.914;2022-11-20T06:47:19;5.45;;;4.32;;
19057;SDS011;9662;53.612;9.914;2022-11-20T06:49:46;5.18;;;4.22;;
19057;SDS011;9662;53.612;9.914;2022-11-20T06:52:12;4.67;;;4.47;;
19057;SDS011;9662;53.612;9.914;2022-11-20T06:54:39;4.60;;;4.40;;
19057;SDS011;9662;53.612;9.914;2022-11-20T06:57:07;4.28;;;4.07;;
19057;SDS011;9662;53.612;9.914;2022-11-20T06:59:34;4.68;;;4.28;;
19057;SDS011;9662;53.612;9.914;2022-11-20T07:02:01;4.60;;;4.30;;
19057;SDS011;9662;53.612;9.914;2022-11-20T07:04:28;6.13;;;4.70;;
19057;SDS011;9662;53.612;9.914;2022-11-20T07:06:55;5.50;;;4.40;;
19057;SDS011;9662;53.612;9.914;2022-11-20T07:09:21;4.60;;;4.20;;
19057;SDS011;9662;53.612;9.914;2022-11-20T07:11:48;4.80;;;4.50;;
19057;SDS011;9662;53.612;9.914;2022-11-20T07:14:16;4.68;;;4.45;;
19057;SDS011;9662;53.612;9.914;2022-11-20T07:16:43;4.75;;;4.50;;
19057;SDS011;9662;53.612;9.914;2022-11-20T07:19:10;4.20;;;4.00;;
19057;SDS011;9662;53.612;9.914;2022-11-20T07:21:37;5.20;;;4.85;;
19057;SDS011;9662;53.612;9.914;2022-11-20T07:24:04;4.40;;;4.20;;
19057;SDS011;9662;53.612;9.914;2022-11-20T07:26:31;4.63;;;4.43;;
19057;SDS011;9662;53.612;9.914;2022-11-20T07:28:57;4.82;;;4.53;;
19057;SDS011;9662;53.612;9.914;2022-11-20T07:31:25;4.18;;;3.97;;
19057;SDS011;9662;53.612;9.914;2022-11-20T07:33:52;4.80;;;4.50;;
19057;SDS011;9662;53.612;9.914;2022-11-20T07:36:19;4.95;;;4.68;;
19057;SDS011;9662;53.612;9.914;2022-11-20T07:38:46;3.97;;;3.78;;
19057;SDS011;9662;53.612;9.914;2022-11-20T07:41:13;5.30;;;4.60;;
19057;SDS011;9662;53.612;9.914;2022-11-20T07:43:40;6.22;;;4.50;;
19057;SDS011;9662;53.612;9.914;2022-11-20T07:46:07;6.35;;;4.38;;
19057;SDS011;9662;53.612;9.914;2022-11-20T07:48:35;4.30;;;4.10;;
19057;SDS011;9662;53.612;9.914;2022-11-20T07:51:02;4.20;;;3.90;;
19057;SDS011;9662;53.612;9.914;2022-11-20T07:53:29;4.22;;;4.03;;
19057;SDS011;9662;53.612;9.914;2022-11-20T07:55:58;4.65;;;4.40;;
19057;SDS011;9662;53.612;9.914;2022-11-20T07:58:26;4.40;;;4.20;;
19057;SDS011;9662;53.612;9.914;2022-11-20T08:00:54;4.15;;;3.95;;
19057;SDS011;9662;53.612;9.914;2022-11-20T08:03:21;4.80;;;4.60;;
19057;SDS011;9662;53.612;9.914;2022-11-20T08:05:50;4.35;;;4.22;;
19057;SDS011;9662;53.612;9.914;2022-11-20T08:08:17;4.50;;;4.30;;
19057;SDS011;9662;53.612;9.914;2022-11-20T08:10:43;5.07;;;4.13;;
19057;SDS011;9662;53.612;9.914;2022-11-20T08:13:10;4.30;;;4.10;;
19057;SDS011;9662;53.612;9.914;2022-11-20T08:15:55;4.70;;;4.30;;
19057;SDS011;9662;53.612;9.914;2022-11-20T08:18:21;4.93;;;4.53;;
19057;SDS011;9662;53.612;9.914;2022-11-20T08:20:49;4.20;;;3.88;;
19057;SDS011;9662;53.612;9.914;2022-11-20T08:23:16;3.80;;;3.70;;
19057;SDS011;9662;53.612;9.914;2022-11-20T08:25:43;4.20;;;4.00;;
19057;SDS011;9662;53.612;9.914;2022-11-20T08:28:15;4.20;;;3.93;;
19057;SDS011;9662;53.612;9.914;2022-11-20T08:30:42;3.30;;;3.20;;
19057;SDS011;9662;53.612;9.914;2022-11-20T08:33:08;3.53;;;3.42;;
19057;SDS011;9662;53.612;9.914;2022-11-20T08:35:36;3.60;;;3.40;;
19057;SDS011;9662;53.612;9.914;2022-11-20T08:38:05;3.72;;;3.53;;
19057;SDS011;9662;53.612;9.914;2022-11-20T08:40:32;3.37;;;3.17;;
19057;SDS011;9662;53.612;9.914;2022-11-20T08:42:59;3.60;;;3.30;;
19057;SDS011;9662;53.612;9.914;2022-11-20T08:45:26;3.58;;;3.47;;
19057;SDS011;9662;53.612;9.914;2022-11-20T08:47:53;4.32;;;4.13;;
19057;SDS011;9662;53.612;9.914;2022-11-20T08:50:20;3.93;;;3.73;;
19057;SDS011;9662;53.612;9.914;2022-11-20T08:52:46;3.88;;;3.78;;
19057;SDS011;9662;53.612;9.914;2022-11-20T08:55:15;3.95;;;3.75;;
19057;SDS011;9662;53.612;9.914;2022-11-20T08:57:41;3.53;;;3.43;;
19057;SDS011;9662;53.612;9.914;2022-11-20T09:00:09;4.30;;;3.90;;
19057;SDS011;9662;53.612;9.914;2022-11-20T09:02:37;3.22;;;3.13;;
19057;SDS011;9662;53.612;9.914;2022-11-20T09:05:04;3.78;;;3.50;;
19057;SDS011;9662;53.612;9.914;2022-11-20T09:07:31;3.42;;;3.22;;
19057;SDS011;9662;53.612;9.914;2022-11-20T09:09:58;3.38;;;3.28;;
19057;SDS011;9662;53.612;9.914;2022-11-20T09:12:26;3.35;;;3.22;;
19057;SDS011;9662;53.612;9.914;2022-11-20T09:14:53;3.38;;;3.28;;
19057;SDS011;9662;53.612;9.914;2022-11-20T09:17:20;3.20;;;3.10;;
19057;SDS011;9662;53.612;9.914;2022-11-20T09:19:47;3.50;;;3.40;;
19057;SDS011;9662;53.612;9.914;2022-11-20T09:22:13;3.80;;;3.67;;
19057;SDS011;9662;53.612;9.914;2022-11-20T09:24:40;3.53;;;3.40;;
19057;SDS011;9662;53.612;9.914;2022-11-20T09:27:07;3.22;;;3.13;;
19057;SDS011;9662;53.612;9.914;2022-11-20T09:29:36;3.40;;;3.30;;
19057;SDS011;9662;53.612;9.914;2022-11-20T09:32:03;3.45;;;3.25;;
19057;SDS011;9662;53.612;9.914;2022-11-20T09:34:30;3.80;;;3.50;;
19057;SDS011;9662;53.612;9.914;2022-11-20T09:36:57;3.42;;;3.33;;
19057;SDS011;9662;53.612;9.914;2022-11-20T09:39:23;3.33;;;3.13;;
19057;SDS011;9662;53.612;9.914;2022-11-20T09:41:56;3.85;;;3.75;;
19057;SDS011;9662;53.612;9.914;2022-11-20T09:44:38;3.97;;;3.78;;
19057;SDS011;9662;53.612;9.914;2022-11-20T09:47:16;5.50;;;3.70;;
19057;SDS011;9662;53.612;9.914;2022-11-20T09:49:53;3.60;;;3.42;;
19057;SDS011;9662;53.612;9.914;2022-11-20T09:52:30;3.58;;;3.40;;
19057;SDS011;9662;53.612;9.914;2022-11-20T09:55:03;3.35;;;3.25;;
19057;SDS011;9662;53.612;9.914;2022-11-20T09:57:35;3.63;;;3.42;;
19057;SDS011;9662;53.612;9.914;2022-11-20T10:00:09;3.17;;;3.08;;
19057;SDS011;9662;53.612;9.914;2022-11-20T10:02:39;3.40;;;3.20;;
19057;SDS011;9662;53.612;9.914;2022-11-20T10:05:10;3.30;;;3.20;;
19057;SDS011;9662;53.612;9.914;2022-11-20T10:07:44;3.33;;;3.22;;
19057;SDS011;9662;53.612;9.914;2022-11-20T10:10:21;3.70;;;3.50;;
19057;SDS011;9662;53.612;9.914;2022-11-20T10:13:03;3.72;;;3.63;;
19057;SDS011;9662;53.612;9.914;2022-11-20T10:15:42;3.53;;;3.22;;
19057;SDS011;9662;53.612;9.914;2022-11-20T10:18:22;3.83;;;3.73;;
19057;SDS011;9662;53.612;9.914;2022-11-20T10:20:59;3.42;;;3.33;;
19057;SDS011;9662;53.612;9.914;2022-11-20T10:23:43;3.35;;;3.25;;
19057;SDS011;9662;53.612;9.914;2022-11-20T10:26:24;3.53;;;3.42;;
19057;SDS011;9662;53.612;9.914;2022-11-20T10:29:01;3.40;;;3.30;;
19057;SDS011;9662;53.612;9.914;2022-11-20T10:31:36;3.83;;;3.63;;
19057;SDS011;9662;53.612;9.914;2022-11-20T10:34:06;3.90;;;3.50;;
19057;SDS011;9662;53.612;9.914;2022-11-20T10:36:43;3.65;;;3.35;;
19057;SDS011;9662;53.612;9.914;2022-11-20T10:39:15;3.47;;;3.33;;
19057;SDS011;9662;53.612;9.914;2022-11-20T10:41:47;3.38;;;3.28;;
19057;SDS011;9662;53.612;9.914;2022-11-20T10:44:19;3.90;;;3.80;;
19057;SDS011;9662;53.612;9.914;2022-11-20T10:47:02;3.40;;;3.30;;
19057;SDS011;9662;53.612;9.914;2022-11-20T10:49:30;4.10;;;3.70;;
19057;SDS011;9662;53.612;9.914;2022-11-20T10:51:59;4.15;;;3.95;;
19057;SDS011;9662;53.612;9.914;2022-11-20T10:54:35;3.67;;;3.38;;
19057;SDS011;9662;53.612;9.914;2022-11-20T10:57:10;3.90;;;3.80;;
19057;SDS011;9662;53.612;9.914;2022-11-20T10:59:58;3.63;;;3.53;;
19057;SDS011;9662;53.612;9.914;2022-11-20T11:02:33;3.83;;;3.63;;
19057;SDS011;9662;53.612;9.914;2022-11-20T11:05:08;3.60;;;3.40;;
19057;SDS011;9662;53.612;9.914;2022-11-20T11:07:40;3.60;;;3.30;;
19057;SDS011;9662;53.612;9.914;2022-11-20T11:10:13;3.65;;;3.45;;
19057;SDS011;9662;53.612;9.914;2022-11-20T11:12:43;3.80;;;3.58;;
19057;SDS011;9662;53.612;9.914;2022-11-20T11:15:12;3.83;;;3.72;;
19057;SDS011;9662;53.612;9.914;2022-11-20T11:17:51;3.77;;;3.67;;
19057;SDS011;9662;53.612;9.914;2022-11-20T11:20:19;3.83;;;3.63;;
19057;SDS011;9662;53.612;9.914;2022-11-20T11:22:47;3.60;;;3.47;;
19057;SDS011;9662;53.612;9.914;2022-11-20T11:25:22;3.47;;;3.38;;
19057;SDS011;9662;53.612;9.914;2022-11-20T11:27:52;3.27;;;3.17;;
19057;SDS011;9662;53.612;9.914;2022-11-20T11:30:21;3.33;;;3.23;;
19057;SDS011;9662;53.612;9.914;2022-11-20T11:32:49;3.17;;;3.08;;
19057;SDS011;9662;53.612;9.914;2022-11-20T11:35:21;3.20;;;3.10;;
19057;SDS011;9662;53.612;9.914;2022-11-20T11:37:51;3.17;;;3.08;;
19057;SDS011;9662;53.612;9.914;2022-11-20T11:40:20;3.20;;;3.10;;
19057;SDS011;9662;53.612;9.914;2022-11-20T11:42:54;4.10;;;3.67;;
19057;SDS011;9662;53.612;9.914;2022-11-20T11:45:23;3.70;;;3.60;;
19057;SDS011;9662;53.612;9.914;2022-11-20T11:47:49;2.97;;;2.85;;
19057;SDS011;9662;53.612;9.914;2022-11-20T11:50:19;2.63;;;2.63;;
19057;SDS011;9662;53.612;9.914;2022-11-20T11:52:50;2.55;;;2.55;;
19057;SDS011;9662;53.612;9.914;2022-11-20T11:55:33;2.47;;;2.47;;
19057;SDS011;9662;53.612;9.914;2022-11-20T11:58:17;2.75;;;2.65;;
19057;SDS011;9662;53.612;9.914;2022-11-20T12:01:00;2.90;;;2.42;;
19057;SDS011;9662;53.612;9.914;2022-11-20T12:03:34;2.67;;;2.58;;
19057;SDS011;9662;53.612;9.914;2022-11-20T12:06:06;3.50;;;3.30;;
19057;SDS011;9662;53.612;9.914;2022-11-20T12:08:39;3.47;;;3.17;;
19057;SDS011;9662;53.612;9.914;2022-11-20T12:11:12;3.20;;;3.10;;
19057;SDS011;9662;53.612;9.914;2022-11-20T12:13:45;3.15;;;3.05;;
19057;SDS011;9662;53.612;9.914;2022-11-20T12:16:19;2.95;;;2.90;;
19057;SDS011;9662;53.612;9.914;2022-11-20T12:18:48;3.13;;;3.03;;
19057;SDS011;9662;53.612;9.914;2022-11-20T12:21:23;3.30;;;3.20;;
19057;SDS011;9662;53.612;9.914;2022-11-20T12:24:02;2.97;;;2.78;;
19057;SDS011;9662;53.612;9.914;2022-11-20T12:26:51;4.00;;;2.75;;
19057;SDS011;9662;53.612;9.914;2022-11-20T12:29:31;2.88;;;2.70;;
19057;SDS011;9662;53.612;9.914;2022-11-20T12:32:09;2.72;;;2.63;;
19057;SDS011;9662;53.612;9.914;2022-11-20T12:34:56;3.17;;;3.08;;
19057;SDS011;9662;53.612;9.914;2022-11-20T12:37:35;3.20;;;3.00;;
19057;SDS011;9662;53.612;9.914;2022-11-20T12:40:14;3.15;;;3.05;;
19057;SDS011;9662;53.612;9.914;2022-11-20T12:42:57;3.00;;;2.88;;
19057;SDS011;9662;53.612;9.914;2022-11-20T12:46:01;2.33;;;2.33;;
19057;SDS011;9662;53.612;9.914;2022-11-20T12:48:55;2.20;;;2.20;;
19057;SDS011;9662;53.612;9.914;2022-11-20T12:51:42;2.10;;;2.00;;
19057;SDS011;9662;53.612;9.914;2022-11-20T12:54:36;1.98;;;1.98;;
19057;SDS011;9662;53.612;9.914;2022-11-20T12:57:29;2.20;;;2.10;;
19057;SDS011;9662;53.612;9.914;2022-11-20T13:00:09;2.13;;;2.13;;
19057;SDS011;9662;53.612;9.914;2022-11-20T13:05:35;2.38;;;2.38;;
19057;SDS011;9662;53.612;9.914;2022-11-20T13:08:14;2.80;;;2.50;;
19057;SDS011;9662;53.612;9.914;2022-11-20T13:10:49;2.45;;;2.40;;
19057;SDS011;9662;53.612;9.914;2022-11-20T13:13:22;2.70;;;2.70;;
19057;SDS011;9662;53.612;9.914;2022-11-20T13:15:53;4.03;;;2.33;;
19057;SDS011;9662;53.612;9.914;2022-11-20T13:18:24;3.63;;;2.88;;
19057;SDS011;9662;53.612;9.914;2022-11-20T13:20:52;2.90;;;2.70;;
19057;SDS011;9662;53.612;9.914;2022-11-20T13:23:25;2.67;;;2.57;;
19057;SDS011;9662;53.612;9.914;2022-11-20T13:26:04;3.45;;;3.35;;
19057;SDS011;9662;53.612;9.914;2022-11-20T13:28:32;3.00;;;2.90;;
19057;SDS011;9662;53.612;9.914;2022-11-20T13:30:59;3.03;;;2.92;;
19057;SDS011;9662;53.612;9.914;2022-11-20T13:33:28;3.10;;;3.00;;
19057;SDS011;9662;53.612;9.914;2022-11-20T13:35:58;3.20;;;3.00;;
19057;SDS011;9662;53.612;9.914;2022-11-20T13:38:27;3.58;;;3.38;;
19057;SDS011;9662;53.612;9.914;2022-11-20T13:40:56;3.20;;;3.10;;
19057;SDS011;9662;53.612;9.914;2022-11-20T13:43:28;3.60;;;3.50;;
19057;SDS011;9662;53.612;9.914;2022-11-20T13:46:01;3.10;;;3.00;;
19057;SDS011;9662;53.612;9.914;2022-11-20T13:48:31;2.70;;;2.60;;
19057;SDS011;9662;53.612;9.914;2022-11-20T13:53:57;2.80;;;2.70;;
19057;SDS011;9662;53.612;9.914;2022-11-20T13:56:53;2.97;;;2.88;;
19057;SDS011;9662;53.612;9.914;2022-11-20T13:59:36;3.00;;;2.90;;
19057;SDS011;9662;53.612;9.914;2022-11-20T14:02:21;2.88;;;2.78;;
19057;SDS011;9662;53.612;9.914;2022-11-20T14:04:51;3.13;;;2.92;;
19057;SDS011;9662;53.612;9.914;2022-11-20T14:07:22;3.10;;;3.00;;
19057;SDS011;9662;53.612;9.914;2022-11-20T14:09:53;4.85;;;3.22;;
19057;SDS011;9662;53.612;9.914;2022-11-20T14:12:21;3.22;;;3.13;;
19057;SDS011;9662;53.612;9.914;2022-11-20T14:14:54;2.80;;;2.70;;
19057;SDS011;9662;53.612;9.914;2022-11-20T14:17:22;2.53;;;2.42;;
19057;SDS011;9662;53.612;9.914;2022-11-20T14:19:56;3.30;;;3.20;;
19057;SDS011;9662;53.612;9.914;2022-11-20T14:22:27;2.72;;;2.72;;
19057;SDS011;9662;53.612;9.914;2022-11-20T14:25:02;3.20;;;3.10;;
19057;SDS011;9662;53.612;9.914;2022-11-20T14:27:33;2.90;;;2.67;;
19057;SDS011;9662;53.612;9.914;2022-11-20T14:30:04;2.90;;;2.80;;
19057;SDS011;9662;53.612;9.914;2022-11-20T14:32:32;3.13;;;3.03;;
19057;SDS011;9662;53.612;9.914;2022-11-20T14:35:02;3.22;;;3.13;;
19057;SDS011;9662;53.612;9.914;2022-11-20T14:37:36;2.95;;;2.80;;
19057;SDS011;9662;53.612;9.914;2022-11-20T14:40:14;3.50;;;3.20;;
19057;SDS011;9662;53.612;9.914;2022-11-20T14:42:49;3.40;;;2.95;;
19057;SDS011;9662;53.612;9.914;2022-11-20T14:45:17;3.55;;;3.35;;
19057;SDS011;9662;53.612;9.914;2022-11-20T14:47:45;3.47;;;3.28;;
19057;SDS011;9662;53.612;9.914;2022-11-20T14:50:13;5.10;;;2.97;;
19057;SDS011;9662;53.612;9.914;2022-11-20T14:52:49;3.33;;;3.13;;
19057;SDS011;9662;53.612;9.914;2022-11-20T14:55:25;3.60;;;3.40;;
19057;SDS011;9662;53.612;9.914;2022-11-20T14:57:56;3.38;;;3.28;;
19057;SDS011;9662;53.612;9.914;2022-11-20T15:00:25;3.78;;;3.53;;
19057;SDS011;9662;53.612;9.914;2022-11-20T15:02:53;3.15;;;3.05;;
19057;SDS011;9662;53.612;9.914;2022-11-20T15:05:20;3.50;;;3.40;;
19057;SDS011;9662;53.612;9.914;2022-11-20T15:07:50;3.13;;;3.03;;
19057;SDS011;9662;53.612;9.914;2022-11-20T15:10:22;3.30;;;3.20;;
19057;SDS011;9662;53.612;9.914;2022-11-20T15:12:50;3.95;;;3.63;;
19057;SDS011;9662;53.612;9.914;2022-11-20T15:15:20;5.30;;;3.83;;
19057;SDS011;9662;53.612;9.914;2022-11-20T15:17:51;4.20;;;4.00;;
19057;SDS011;9662;53.612;9.914;2022-11-20T15:20:19;3.55;;;3.30;;
19057;SDS011;9662;53.612;9.914;2022-11-20T15:22:50;3.73;;;3.53;;